Time;durP1;ratioP1;P1;durP2;ratioP2;P2;SDS_P1;SDS_P2;PMS_P1;PMS_P2;Temp;Humidity;BMP_temperature;BMP_pressure;BME280_temperature;BME280_humidity;BME280_pressure;Samples;Min_cycle;Max_cycle;Signal;HPM_P1;HPM_P2
2022/06/21 00:01:49;;;;;;;3.35;2.45;;;;;;;;;;1712632;82;21139;-66
2022/06/21 00:04:15;;;;;;;3.72;3.00;;;;;;;;;;1739405;82;21077;-67
2022/06/21 00:06:41;;;;;;;4.20;2.65;;;;;;;;;;1735023;82;21477;-67
2022/06/21 00:09:09;;;;;;;4.35;2.60;;;;;;;;;;1732402;82;21037;-67
2022/06/21 00:11:35;;;;;;;3.52;2.60;;;;;;;;;;1738852;82;21045;-66
2022/06/21 00:14:01;;;;;;;3.22;2.50;;;;;;;;;;1735422;82;21045;-67
2022/06/21 00:16:28;;;;;;;3.58;2.62;;;;;;;;;;1725815;82;21501;-66
2022/06/21 00:18:55;;;;;;;3.05;2.45;;;;;;;;;;1730347;82;21022;-67
2022/06/21 00:21:23;;;;;;;4.83;2.62;;;;;;;;;;1739497;82;21049;-67
2022/06/21 00:23:50;;;;;;;5.80;2.90;;;;;;;;;;1738423;82;20990;-66
2022/06/21 00:26:16;;;;;;;3.72;2.70;;;;;;;;;;1716423;82;21029;-66
2022/06/21 00:28:43;;;;;;;3.40;2.45;;;;;;;;;;1725657;82;21104;-66
2022/06/21 00:31:19;;;;;;;6.37;2.42;;;;;;;;;;1710393;82;21096;-66
2022/06/21 00:33:46;;;;;;;3.37;2.77;;;;;;;;;;1729830;82;22116;-66
2022/06/21 00:36:14;;;;;;;2.70;2.47;;;;;;;;;;1735811;82;21001;-66
2022/06/21 00:38:40;;;;;;;3.20;2.20;;;;;;;;;;1702281;82;21540;-66
2022/06/21 00:41:07;;;;;;;2.47;2.12;;;;;;;;;;1711773;82;21025;-66
2022/06/21 00:43:36;;;;;;;3.30;2.50;;;;;;;;;;1735901;82;21509;-66
2022/06/21 00:46:02;;;;;;;3.85;2.75;;;;;;;;;;1722937;82;21536;-66
2022/06/21 00:48:36;;;;;;;3.12;2.60;;;;;;;;;;1736782;82;21076;-66
2022/06/21 00:51:07;;;;;;;3.75;2.50;;;;;;;;;;1718258;82;21037;-66
2022/06/21 00:53:41;;;;;;;3.20;2.30;;;;;;;;;;1739469;82;21030;-66
2022/06/21 00:56:12;;;;;;;2.98;2.37;;;;;;;;;;1728744;82;21065;-66
2022/06/21 00:58:38;;;;;;;4.62;2.87;;;;;;;;;;1724432;82;21120;-66
2022/06/21 01:03:54;;;;;;;3.98;2.98;;;;;;;;;;1710280;80;71244;-68
2022/06/21 01:06:25;;;;;;;5.65;2.55;;;;;;;;;;1737457;81;21587;-67
2022/06/21 01:08:53;;;;;;;3.15;2.30;;;;;;;;;;1726233;82;21537;-67
2022/06/21 01:11:21;;;;;;;3.80;2.60;;;;;;;;;;1722900;82;21064;-68
2022/06/21 01:13:49;;;;;;;3.40;2.60;;;;;;;;;;1721038;82;21046;-67
2022/06/21 01:16:15;;;;;;;4.20;2.60;;;;;;;;;;1725989;81;21099;-68
2022/06/21 01:18:41;;;;;;;3.60;2.47;;;;;;;;;;1747688;81;21034;-68
2022/06/21 01:21:09;;;;;;;3.45;2.27;;;;;;;;;;1722060;82;21465;-68
2022/06/21 01:23:46;;;;;;;3.00;2.47;;;;;;;;;;1721522;82;21814;-68
2022/06/21 01:26:26;;;;;;;6.30;2.60;;;;;;;;;;1727398;81;21049;-68
2022/06/21 01:28:52;;;;;;;3.27;2.20;;;;;;;;;;1745131;81;21020;-67
2022/06/21 01:31:18;;;;;;;3.42;2.47;;;;;;;;;;1721871;82;21041;-68
2022/06/21 01:33:45;;;;;;;5.05;2.70;;;;;;;;;;1723099;82;21073;-68
2022/06/21 01:36:13;;;;;;;2.95;2.45;;;;;;;;;;1691959;83;21102;-68
2022/06/21 01:38:41;;;;;;;3.50;2.55;;;;;;;;;;1693255;84;21560;-68
2022/06/21 01:41:08;;;;;;;4.25;2.27;;;;;;;;;;1713213;84;21064;-68
2022/06/21 01:43:36;;;;;;;3.12;2.22;;;;;;;;;;1710251;84;21108;-68
2022/06/21 01:46:07;;;;;;;5.75;2.65;;;;;;;;;;1691878;83;21051;-68
2022/06/21 01:48:44;;;;;;;4.03;2.52;;;;;;;;;;1705299;84;21113;-68
2022/06/21 01:51:12;;;;;;;4.25;2.45;;;;;;;;;;1707876;84;21105;-67
2022/06/21 01:53:38;;;;;;;4.00;2.17;;;;;;;;;;1696548;84;21044;-67
2022/06/21 01:56:06;;;;;;;3.27;2.60;;;;;;;;;;1691514;83;21079;-67
2022/06/21 01:58:33;;;;;;;2.92;2.40;;;;;;;;;;1661741;84;21102;-67
2022/06/21 02:01:01;;;;;;;2.95;2.17;;;;;;;;;;1710202;84;21049;-67
2022/06/21 02:03:31;;;;;;;3.65;2.40;;;;;;;;;;1721788;82;21077;-67
2022/06/21 02:05:58;;;;;;;3.08;2.37;;;;;;;;;;1721509;82;21034;-67
2022/06/21 02:08:25;;;;;;;3.42;2.47;;;;;;;;;;1723292;81;21053;-67
2022/06/21 02:10:54;;;;;;;3.85;2.55;;;;;;;;;;1720863;82;21048;-67
2022/06/21 02:13:22;;;;;;;3.47;2.50;;;;;;;;;;1720485;82;21097;-67
2022/06/21 02:15:50;;;;;;;3.37;2.52;;;;;;;;;;1720443;82;21027;-67
2022/06/21 02:18:16;;;;;;;2.92;2.35;;;;;;;;;;1727879;81;21569;-67
2022/06/21 02:20:51;;;;;;;3.40;2.80;;;;;;;;;;1740556;82;21079;-67
2022/06/21 02:23:17;;;;;;;3.98;2.40;;;;;;;;;;1743306;82;21248;-66
2022/06/21 02:25:44;;;;;;;4.47;3.10;;;;;;;;;;1733456;81;21398;-68
2022/06/21 02:28:12;;;;;;;3.67;2.65;;;;;;;;;;1735835;82;21064;-67
2022/06/21 02:30:39;;;;;;;3.55;2.62;;;;;;;;;;1739202;82;21049;-67
2022/06/21 02:33:06;;;;;;;3.22;2.55;;;;;;;;;;1724495;82;21028;-67
2022/06/21 02:35:37;;;;;;;4.10;2.42;;;;;;;;;;1741885;82;21054;-68
2022/06/21 02:38:04;;;;;;;4.65;2.60;;;;;;;;;;1743177;82;21585;-67
2022/06/21 02:40:32;;;;;;;3.75;2.90;;;;;;;;;;1742276;82;21010;-68
2022/06/21 02:43:03;;;;;;;3.52;2.20;;;;;;;;;;1724844;82;21029;-68
2022/06/21 02:45:31;;;;;;;3.45;2.52;;;;;;;;;;1748963;81;21089;-67
2022/06/21 02:47:59;;;;;;;4.78;2.37;;;;;;;;;;1734461;81;21539;-67
2022/06/21 02:50:28;;;;;;;5.80;2.72;;;;;;;;;;1723586;82;21064;-67
2022/06/21 02:52:55;;;;;;;4.40;2.60;;;;;;;;;;1719697;82;21040;-67
2022/06/21 02:55:39;;;;;;;4.65;2.83;;;;;;;;;;1734893;81;21028;-67
2022/06/21 02:58:07;;;;;;;3.20;2.50;;;;;;;;;;1733740;81;21108;-68
2022/06/21 03:00:34;;;;;;;4.50;3.00;;;;;;;;;;1720945;82;21586;-67
2022/06/21 03:03:01;;;;;;;4.00;2.47;;;;;;;;;;1726695;82;21084;-67
2022/06/21 03:05:28;;;;;;;3.15;2.35;;;;;;;;;;1727671;82;21007;-67
2022/06/21 03:07:57;;;;;;;5.15;2.52;;;;;;;;;;1694814;83;21057;-67
2022/06/21 03:10:28;;;;;;;3.45;2.47;;;;;;;;;;1725847;83;21016;-67
2022/06/21 03:13:02;;;;;;;3.20;2.42;;;;;;;;;;1725225;82;21123;-67
2022/06/21 03:15:29;;;;;;;5.60;2.60;;;;;;;;;;1738361;81;21009;-67
2022/06/21 03:17:57;;;;;;;4.90;2.62;;;;;;;;;;1740240;81;21072;-67
2022/06/21 03:20:24;;;;;;;4.15;2.75;;;;;;;;;;1725581;83;21037;-67
2022/06/21 03:22:51;;;;;;;4.78;2.50;;;;;;;;;;1694873;83;21030;-67
2022/06/21 03:25:19;;;;;;;3.92;2.80;;;;;;;;;;1735124;81;21008;-67
2022/06/21 03:27:50;;;;;;;4.95;2.60;;;;;;;;;;1742433;81;21072;-66
2022/06/21 03:30:17;;;;;;;4.90;2.62;;;;;;;;;;1719209;82;21055;-66
2022/06/21 03:32:44;;;;;;;4.87;2.85;;;;;;;;;;1722764;83;21094;-67
2022/06/21 03:35:10;;;;;;;3.27;2.50;;;;;;;;;;1725837;81;21535;-67
2022/06/21 03:37:38;;;;;;;5.40;2.70;;;;;;;;;;1754851;81;21006;-68
2022/06/21 03:42:50;;;;;;;3.65;2.47;;;;;;;;;;1726026;83;21030;-67
2022/06/21 03:45:18;;;;;;;4.37;2.37;;;;;;;;;;1733187;82;21508;-67
2022/06/21 03:47:46;;;;;;;4.87;2.60;;;;;;;;;;1737838;82;21132;-67
2022/06/21 03:50:13;;;;;;;3.15;2.60;;;;;;;;;;1725989;83;21052;-67
2022/06/21 03:52:42;;;;;;;3.67;2.67;;;;;;;;;;1726251;83;21072;-67
2022/06/21 03:55:22;;;;;;;11.90;3.75;;;;;;;;;;1732550;81;21461;-67
2022/06/21 03:57:54;;;;;;;4.58;2.80;;;;;;;;;;1742555;81;21072;-67
2022/06/21 04:00:20;;;;;;;5.53;2.90;;;;;;;;;;1700963;82;21082;-67
2022/06/21 04:02:55;;;;;;;3.98;2.58;;;;;;;;;;1743144;82;21093;-67
2022/06/21 04:05:29;;;;;;;5.00;2.70;;;;;;;;;;1735651;81;21185;-68
2022/06/21 04:08:00;;;;;;;4.40;2.80;;;;;;;;;;1723034;82;21064;-68
2022/06/21 04:10:30;;;;;;;4.58;3.10;;;;;;;;;;1720943;83;21088;-68
2022/06/21 04:12:57;;;;;;;3.25;2.55;;;;;;;;;;1721637;82;21061;-68
2022/06/21 04:15:38;;;;;;;3.50;2.60;;;;;;;;;;1720118;82;21535;-68
2022/06/21 04:18:06;;;;;;;5.58;2.90;;;;;;;;;;1660928;82;21022;-68
2022/06/21 04:20:43;;;;;;;4.15;2.80;;;;;;;;;;1735532;82;21057;-68
2022/06/21 04:23:20;;;;;;;3.92;2.55;;;;;;;;;;1729020;82;21100;-68
2022/06/21 04:25:49;;;;;;;3.92;2.67;;;;;;;;;;1730600;82;21090;-68
2022/06/21 04:28:29;;;;;;;4.72;3.05;;;;;;;;;;1721330;82;21064;-68
2022/06/21 04:31:00;;;;;;;4.80;2.75;;;;;;;;;;1720407;83;21575;-68
2022/06/21 04:33:27;;;;;;;5.28;3.08;;;;;;;;;;1719955;83;21045;-68
2022/06/21 04:35:55;;;;;;;5.30;3.35;;;;;;;;;;1727757;81;20989;-67
2022/06/21 04:38:33;;;;;;;6.53;3.87;;;;;;;;;;1739115;82;21105;-67
2022/06/21 04:41:00;;;;;;;3.27;2.80;;;;;;;;;;1728208;82;21096;-68
2022/06/21 04:43:28;;;;;;;3.52;2.62;;;;;;;;;;1731860;82;20998;-68
2022/06/21 04:45:56;;;;;;;3.15;2.65;;;;;;;;;;1719226;82;21020;-67
2022/06/21 04:48:36;;;;;;;4.92;2.60;;;;;;;;;;1732446;82;21037;-67
2022/06/21 04:51:03;;;;;;;3.08;2.67;;;;;;;;;;1723830;82;21070;-68
2022/06/21 04:53:31;;;;;;;4.40;2.80;;;;;;;;;;1722468;83;21112;-67
2022/06/21 04:56:12;;;;;;;4.17;2.87;;;;;;;;;;1721092;81;21039;-67
2022/06/21 04:58:38;;;;;;;5.60;2.90;;;;;;;;;;1707851;82;21107;-68
2022/06/21 05:01:29;;;;;;;4.62;2.60;;;;;;;;;;1722960;81;21014;-69
2022/06/21 05:03:37;;;;;;;4.85;2.90;;;;;;;;;;1725494;82;21139;-67
2022/06/21 05:06:03;;;;;;;5.15;3.00;;;;;;;;;;1718891;82;21069;-68
2022/06/21 05:08:30;;;;;;;6.70;3.72;;;;;;;;;;1719127;83;21576;-68
2022/06/21 05:10:58;;;;;;;6.33;3.10;;;;;;;;;;1720406;83;21046;-68
2022/06/21 05:13:27;;;;;;;3.62;2.80;;;;;;;;;;1720100;83;21097;-68
2022/06/21 05:15:54;;;;;;;4.08;2.60;;;;;;;;;;1719733;82;21096;-67
2022/06/21 05:18:21;;;;;;;5.20;3.10;;;;;;;;;;1718950;83;21500;-68
2022/06/21 05:20:51;;;;;;;9.85;2.98;;;;;;;;;;1718873;83;21054;-67
2022/06/21 05:23:17;;;;;;;5.33;2.95;;;;;;;;;;1718794;82;21032;-67
2022/06/21 05:25:43;;;;;;;4.92;2.90;;;;;;;;;;1719878;83;21054;-67
2022/06/21 05:28:12;;;;;;;5.12;3.17;;;;;;;;;;1721131;82;21615;-67
2022/06/21 05:30:39;;;;;;;7.72;2.98;;;;;;;;;;1716246;83;21565;-67
2022/06/21 05:33:07;;;;;;;8.30;2.90;;;;;;;;;;1718134;83;21070;-67
2022/06/21 05:35:36;;;;;;;7.85;2.98;;;;;;;;;;1717920;83;21062;-66
2022/06/21 05:38:06;;;;;;;9.98;3.30;;;;;;;;;;1717895;83;21598;-68
2022/06/21 05:40:52;;;;;;;4.85;3.20;;;;;;;;;;1719393;81;20969;-68
2022/06/21 05:43:20;;;;;;;4.22;2.70;;;;;;;;;;1717984;83;21060;-68
2022/06/21 05:46:03;;;;;;;6.45;3.00;;;;;;;;;;1718955;83;21070;-67
2022/06/21 05:48:31;;;;;;;5.00;2.80;;;;;;;;;;1692086;82;21056;-67
2022/06/21 05:50:58;;;;;;;6.08;2.77;;;;;;;;;;1731618;81;21118;-67
2022/06/21 05:53:31;;;;;;;5.92;2.80;;;;;;;;;;1727473;81;21029;-66
2022/06/21 05:55:59;;;;;;;5.78;3.00;;;;;;;;;;1715515;82;21052;-65
2022/06/21 05:58:29;;;;;;;5.17;2.95;;;;;;;;;;1717285;82;22101;-64
2022/06/21 06:01:00;;;;;;;4.22;3.10;;;;;;;;;;1723757;81;21005;-66
2022/06/21 06:03:30;;;;;;;7.47;3.40;;;;;;;;;;1720232;82;21118;-66
2022/06/21 06:05:56;;;;;;;5.12;2.80;;;;;;;;;;1720671;81;21017;-66
2022/06/21 06:08:24;;;;;;;5.37;2.98;;;;;;;;;;1720713;82;21087;-65
2022/06/21 06:10:50;;;;;;;5.15;2.90;;;;;;;;;;1738462;81;22075;-66
2022/06/21 06:13:17;;;;;;;4.67;3.05;;;;;;;;;;1725821;83;21107;-66
2022/06/21 06:15:49;;;;;;;5.95;2.72;;;;;;;;;;1723136;81;21598;-65
2022/06/21 06:18:19;;;;;;;4.92;3.10;;;;;;;;;;1721810;82;21082;-67
2022/06/21 06:20:50;;;;;;;5.22;3.10;;;;;;;;;;1729461;81;21039;-66
2022/06/21 06:23:18;;;;;;;5.05;3.10;;;;;;;;;;1734596;81;21488;-67
2022/06/21 06:25:45;;;;;;;4.20;3.47;;;;;;;;;;1747387;82;21032;-66
2022/06/21 06:28:14;;;;;;;4.83;3.20;;;;;;;;;;1743981;81;21008;-66
2022/06/21 06:31:00;;;;;;;5.03;3.10;;;;;;;;;;1697854;83;21047;-66
2022/06/21 06:33:31;;;;;;;5.83;4.03;;;;;;;;;;1694510;83;21011;-65
2022/06/21 06:35:57;;;;;;;7.35;3.60;;;;;;;;;;1698260;83;21603;-65
2022/06/21 06:38:27;;;;;;;5.53;3.47;;;;;;;;;;1718582;82;20973;-65
2022/06/21 06:40:52;;;;;;;4.85;3.20;;;;;;;;;;1724528;81;21012;-64
2022/06/21 06:43:26;;;;;;;3.80;2.92;;;;;;;;;;1728077;81;20957;-65
2022/06/21 06:45:52;;;;;;;5.53;3.60;;;;;;;;;;1721033;81;21030;-67
2022/06/21 06:48:22;;;;;;;4.58;3.22;;;;;;;;;;1723106;81;21053;-65
2022/06/21 06:50:51;;;;;;;4.95;3.22;;;;;;;;;;1697855;83;21120;-65
2022/06/21 06:53:19;;;;;;;5.97;3.77;;;;;;;;;;1694032;83;21065;-65
2022/06/21 06:55:47;;;;;;;4.72;3.55;;;;;;;;;;1689341;83;21072;-66
2022/06/21 06:58:30;;;;;;;4.25;3.52;;;;;;;;;;1729777;81;21084;-65
2022/06/21 07:00:59;;;;;;;4.20;3.15;;;;;;;;;;1679357;83;21063;-64
2022/06/21 07:03:26;;;;;;;5.78;3.40;;;;;;;;;;1663321;84;21137;-65
2022/06/21 07:05:55;;;;;;;4.15;3.47;;;;;;;;;;1706250;83;21022;-65
2022/06/21 07:08:35;;;;;;;5.55;3.33;;;;;;;;;;1702128;84;21040;-65
2022/06/21 07:11:04;;;;;;;4.92;3.60;;;;;;;;;;1700767;84;21085;-65
2022/06/21 07:13:31;;;;;;;4.55;3.20;;;;;;;;;;1695587;83;21058;-65
2022/06/21 07:15:59;;;;;;;6.65;3.92;;;;;;;;;;1696015;83;21507;-65
2022/06/21 07:18:33;;;;;;;5.00;3.35;;;;;;;;;;1698896;84;21497;-65
2022/06/21 07:20:59;;;;;;;7.10;3.42;;;;;;;;;;1698827;83;21103;-77
2022/06/21 07:23:26;;;;;;;5.00;3.50;;;;;;;;;;1695846;83;21042;-74
2022/06/21 07:25:53;;;;;;;7.55;3.87;;;;;;;;;;1701102;83;21022;-86
2022/06/21 07:28:39;;;;;;;10.20;4.22;;;;;;;;;;1700957;83;21042;-82
2022/06/21 07:31:08;;;;;;;8.98;4.10;;;;;;;;;;1703025;83;21586;-78
2022/06/21 07:33:36;;;;;;;10.43;5.45;;;;;;;;;;1695837;83;21083;-84
2022/06/21 07:36:04;;;;;;;6.55;3.95;;;;;;;;;;1700112;83;21006;-79
2022/06/21 07:38:33;;;;;;;6.72;4.30;;;;;;;;;;1692979;84;21064;-86
2022/06/21 07:41:02;;;;;;;7.22;4.20;;;;;;;;;;1699627;83;21058;-82
2022/06/21 07:43:30;;;;;;;4.67;4.08;;;;;;;;;;1708671;83;21604;-80
2022/06/21 07:45:57;;;;;;;6.15;4.30;;;;;;;;;;1697332;84;21569;-84
2022/06/21 07:48:28;;;;;;;9.15;5.00;;;;;;;;;;1702083;84;21045;-82
2022/06/21 07:50:59;;;;;;;7.33;4.17;;;;;;;;;;1700311;84;21108;-81
2022/06/21 07:53:29;;;;;;;6.90;4.60;;;;;;;;;;1698134;83;21024;-80
2022/06/21 07:56:00;;;;;;;6.75;4.60;;;;;;;;;;1699618;83;21044;-77
2022/06/21 07:58:34;;;;;;;6.50;4.30;;;;;;;;;;1697916;83;21111;-79
2022/06/21 08:06:43;;;;;;;9.85;4.50;;;;;;;;;;1670862;85;21549;-81
2022/06/21 08:09:21;;;;;;;8.15;4.25;;;;;;;;;;1687426;85;21030;-86
2022/06/21 08:11:48;;;;;;;6.65;5.00;;;;;;;;;;1686458;83;20989;-82
2022/06/21 08:14:15;;;;;;;4.80;3.98;;;;;;;;;;1705321;83;21068;-81
2022/06/21 08:16:43;;;;;;;5.97;4.22;;;;;;;;;;1702166;83;21052;-82
2022/06/21 08:19:12;;;;;;;4.83;3.80;;;;;;;;;;1702056;83;21004;-81
2022/06/21 08:21:41;;;;;;;5.42;4.17;;;;;;;;;;1699613;84;21040;-79
2022/06/21 08:24:11;;;;;;;6.33;4.55;;;;;;;;;;1733623;81;21024;-85
2022/06/21 08:26:39;;;;;;;6.55;3.85;;;;;;;;;;1680891;85;21360;-83
2022/06/21 08:29:07;;;;;;;5.97;4.17;;;;;;;;;;1673944;85;21024;-82
2022/06/21 08:31:34;;;;;;;6.15;4.17;;;;;;;;;;1746077;82;21064;-79
2022/06/21 08:34:08;;;;;;;5.60;3.85;;;;;;;;;;1737339;81;21053;-78
2022/06/21 08:36:39;;;;;;;5.28;3.87;;;;;;;;;;1733348;81;21515;-84
2022/06/21 08:39:13;;;;;;;7.35;3.70;;;;;;;;;;1700022;83;21026;-88
2022/06/21 08:41:55;;;;;;;6.45;3.92;;;;;;;;;;1712553;83;21058;-81
2022/06/21 08:44:31;;;;;;;5.83;3.77;;;;;;;;;;1703766;83;21016;-81
2022/06/21 08:47:16;;;;;;;7.30;3.70;;;;;;;;;;1714302;83;21036;-82
2022/06/21 08:49:50;;;;;;;7.62;3.90;;;;;;;;;;1700041;83;21044;-84
2022/06/21 08:52:22;;;;;;;7.33;4.00;;;;;;;;;;1711097;82;21041;-82
2022/06/21 08:55:09;;;;;;;7.37;3.35;;;;;;;;;;1672539;84;21120;-78
2022/06/21 08:57:41;;;;;;;6.58;3.72;;;;;;;;;;1734029;81;21576;-88
2022/06/21 09:00:12;;;;;;;8.08;4.08;;;;;;;;;;1735105;81;21147;-79
2022/06/21 09:02:58;;;;;;;5.65;3.62;;;;;;;;;;1723219;83;21121;-77
2022/06/21 09:05:29;;;;;;;7.10;3.83;;;;;;;;;;1728885;83;20981;-79
2022/06/21 09:08:06;;;;;;;6.00;3.35;;;;;;;;;;1716547;82;20994;-76
2022/06/21 09:10:36;;;;;;;7.67;3.65;;;;;;;;;;1721930;82;21025;-77
2022/06/21 09:13:09;;;;;;;7.33;3.45;;;;;;;;;;1716555;83;21057;-77
2022/06/21 09:15:49;;;;;;;6.70;3.65;;;;;;;;;;1712541;83;21037;-77
2022/06/21 09:18:17;;;;;;;5.78;3.62;;;;;;;;;;1725943;82;21065;-83
2022/06/21 09:20:54;;;;;;;6.03;3.50;;;;;;;;;;1729612;82;21053;-79
2022/06/21 09:23:22;;;;;;;5.60;3.37;;;;;;;;;;1712750;83;21556;-75
2022/06/21 09:25:55;;;;;;;5.10;3.62;;;;;;;;;;1715529;82;21096;-76
2022/06/21 09:28:23;;;;;;;6.25;3.25;;;;;;;;;;1707130;82;21042;-79
2022/06/21 09:30:51;;;;;;;7.42;3.60;;;;;;;;;;1730508;82;21145;-81
2022/06/21 09:33:25;;;;;;;5.60;3.50;;;;;;;;;;1710043;83;21093;-78
2022/06/21 09:35:53;;;;;;;6.08;3.55;;;;;;;;;;1710090;82;21005;-76
2022/06/21 09:38:38;;;;;;;5.90;4.00;;;;;;;;;;1710174;83;21588;-74
2022/06/21 09:41:18;;;;;;;3.75;3.10;;;;;;;;;;1723060;82;21048;-74
2022/06/21 09:43:53;;;;;;;8.53;3.60;;;;;;;;;;1724491;82;20990;-74
2022/06/21 09:46:20;;;;;;;7.33;3.37;;;;;;;;;;1696867;83;21056;-74
2022/06/21 09:48:48;;;;;;;5.15;3.40;;;;;;;;;;1698905;84;21118;-76
2022/06/21 09:51:19;;;;;;;8.58;3.75;;;;;;;;;;1699919;83;21000;-78
2022/06/21 09:54:03;;;;;;;6.80;3.75;;;;;;;;;;1709929;82;21035;-78
2022/06/21 09:56:31;;;;;;;5.67;3.47;;;;;;;;;;1713296;82;21057;-81
2022/06/21 09:59:17;;;;;;;4.90;3.10;;;;;;;;;;1712352;82;21040;-79
2022/06/21 10:02:02;;;;;;;7.10;3.45;;;;;;;;;;1727561;82;21083;-79
2022/06/21 10:04:32;;;;;;;4.65;3.47;;;;;;;;;;1669621;85;21573;-78
2022/06/21 10:07:01;;;;;;;7.12;3.58;;;;;;;;;;1714600;81;21072;-79
2022/06/21 10:09:47;;;;;;;13.18;4.55;;;;;;;;;;1723663;82;21066;-74
2022/06/21 10:12:15;;;;;;;7.55;3.20;;;;;;;;;;1707730;84;21024;-73
2022/06/21 10:14:45;;;;;;;9.93;3.67;;;;;;;;;;1712565;83;21063;-76
2022/06/21 10:17:20;;;;;;;8.25;3.85;;;;;;;;;;1717274;82;22322;-75
2022/06/21 10:19:52;;;;;;;9.15;4.10;;;;;;;;;;1716875;82;21127;-75
2022/06/21 10:22:20;;;;;;;7.50;4.00;;;;;;;;;;1717557;83;21048;-74
2022/06/21 10:24:51;;;;;;;13.98;4.47;;;;;;;;;;1721117;83;21009;-76
2022/06/21 10:27:36;;;;;;;12.35;4.20;;;;;;;;;;1713122;82;21077;-74
2022/06/21 10:30:13;;;;;;;13.53;4.58;;;;;;;;;;1712344;82;21481;-77
2022/06/21 10:32:44;;;;;;;7.58;4.30;;;;;;;;;;1720846;82;21047;-77
2022/06/21 10:35:12;;;;;;;6.53;4.22;;;;;;;;;;1712512;83;21013;-73
2022/06/21 10:37:40;;;;;;;10.23;4.12;;;;;;;;;;1702669;82;21171;-73
2022/06/21 10:40:08;;;;;;;10.45;4.30;;;;;;;;;;1661268;85;21061;-73
2022/06/21 10:42:52;;;;;;;8.08;4.00;;;;;;;;;;1633644;86;21057;-73
2022/06/21 10:45:26;;;;;;;10.38;3.87;;;;;;;;;;1666199;86;21066;-71
2022/06/21 10:48:07;;;;;;;5.78;4.05;;;;;;;;;;1667715;85;21142;-71
2022/06/21 10:50:35;;;;;;;8.20;3.90;;;;;;;;;;1668043;85;21066;-75
2022/06/21 10:53:06;;;;;;;6.33;3.80;;;;;;;;;;1707027;82;21036;-74
2022/06/21 10:55:34;;;;;;;6.83;4.08;;;;;;;;;;1712048;83;21088;-74
2022/06/21 11:03:04;;;;;;;5.12;4.00;;;;;;;;;;1770143;79;21972;-75
2022/06/21 11:05:50;;;;;;;7.15;5.30;;;;;;;;;;1770642;80;21036;-74
2022/06/21 11:08:37;;;;;;;6.83;5.08;;;;;;;;;;1784469;80;21507;-79
2022/06/21 11:11:09;;;;;;;7.22;4.83;;;;;;;;;;1770381;78;21067;-76
2022/06/21 11:13:41;;;;;;;5.22;4.05;;;;;;;;;;1767192;79;21509;-76
2022/06/21 11:16:12;;;;;;;8.20;4.62;;;;;;;;;;1768925;79;21055;-75
2022/06/21 11:18:47;;;;;;;8.25;5.50;;;;;;;;;;1762338;80;22096;-75
2022/06/21 11:21:15;;;;;;;6.25;4.60;;;;;;;;;;1775308;78;21180;-77
2022/06/21 11:23:49;;;;;;;6.40;4.80;;;;;;;;;;1762313;79;21059;-77
2022/06/21 11:26:17;;;;;;;10.48;5.65;;;;;;;;;;1773714;78;20958;-77
2022/06/21 11:29:02;;;;;;;8.75;5.50;;;;;;;;;;1768933;80;21050;-85
2022/06/21 11:31:30;;;;;;;7.17;5.60;;;;;;;;;;1777523;79;21168;-84
2022/06/21 11:34:15;;;;;;;27.42;20.75;;;;;;;;;;1783394;78;21558;-78
2022/06/21 11:36:55;;;;;;;28.15;18.27;;;;;;;;;;1768919;78;21039;-77
2022/06/21 11:39:35;;;;;;;33.25;7.12;;;;;;;;;;1739254;81;20959;-84
2022/06/21 11:42:12;;;;;;;26.40;4.35;;;;;;;;;;1752052;81;21516;-81
2022/06/21 11:44:40;;;;;;;24.25;4.20;;;;;;;;;;1731760;81;21062;-80
2022/06/21 11:47:07;;;;;;;7.72;2.50;;;;;;;;;;1727646;81;21079;-79
2022/06/21 11:49:35;;;;;;;8.58;2.47;;;;;;;;;;1711966;83;21067;-83
2022/06/21 11:52:06;;;;;;;6.50;2.40;;;;;;;;;;1725338;83;21052;-81
2022/06/21 11:54:34;;;;;;;5.80;2.40;;;;;;;;;;1724855;83;21614;-81
2022/06/21 11:57:11;;;;;;;4.22;1.80;;;;;;;;;;1726726;83;21004;-81
2022/06/21 11:59:40;;;;;;;3.95;1.65;;;;;;;;;;1696677;82;21627;-78
2022/06/21 12:02:23;;;;;;;3.85;2.10;;;;;;;;;;1699961;82;20984;-79
2022/06/21 12:05:08;;;;;;;3.05;1.50;;;;;;;;;;1690651;83;21098;-80
2022/06/21 12:07:45;;;;;;;3.45;1.60;;;;;;;;;;1691589;83;21532;-80
2022/06/21 12:10:16;;;;;;;3.37;1.27;;;;;;;;;;1747813;82;21189;-82
2022/06/21 12:12:46;;;;;;;1.50;1.40;;;;;;;;;;1764895;80;21048;-82
2022/06/21 12:15:24;;;;;;;1.45;1.35;;;;;;;;;;1754093;80;21021;-73
2022/06/21 12:17:51;;;;;;;2.20;1.47;;;;;;;;;;1767612;79;21025;-75
2022/06/21 12:20:25;;;;;;;1.65;1.52;;;;;;;;;;1778452;81;21060;-75
2022/06/21 12:23:00;;;;;;;1.65;1.55;;;;;;;;;;1776208;79;21056;-75
2022/06/21 12:25:26;;;;;;;1.98;1.62;;;;;;;;;;1774973;80;21026;-76
2022/06/21 12:27:53;;;;;;;2.55;1.80;;;;;;;;;;1780497;79;21005;-75
2022/06/21 12:30:21;;;;;;;2.08;1.70;;;;;;;;;;1764618;79;21049;-76
2022/06/21 12:32:47;;;;;;;2.12;1.80;;;;;;;;;;1777660;79;21829;-74
2022/06/21 12:35:16;;;;;;;2.50;1.80;;;;;;;;;;1756319;79;21016;-75
2022/06/21 12:37:43;;;;;;;2.45;1.98;;;;;;;;;;1770847;79;21002;-75
2022/06/21 12:40:22;;;;;;;3.77;2.10;;;;;;;;;;1769011;79;21005;-75
2022/06/21 12:42:50;;;;;;;2.80;2.10;;;;;;;;;;1768298;81;21053;-73
2022/06/21 12:45:24;;;;;;;2.12;1.85;;;;;;;;;;1768145;79;21060;-72
2022/06/21 12:48:11;;;;;;;3.55;2.33;;;;;;;;;;1764558;79;21104;-75
2022/06/21 12:50:46;;;;;;;2.25;1.90;;;;;;;;;;1751816;79;21560;-78
2022/06/21 12:53:17;;;;;;;3.02;2.00;;;;;;;;;;1765501;81;21005;-78
2022/06/21 12:55:51;;;;;;;2.47;1.87;;;;;;;;;;1770763;79;21008;-73
2022/06/21 12:58:19;;;;;;;5.53;4.20;;;;;;;;;;1772457;80;21109;-79
2022/06/21 13:00:53;;;;;;;12.85;8.58;;;;;;;;;;1759580;80;21107;-80
2022/06/21 13:03:24;;;;;;;5.83;4.25;;;;;;;;;;1756027;82;21107;-78
2022/06/21 13:05:58;;;;;;;4.78;2.40;;;;;;;;;;1768379;80;21012;-85
2022/06/21 13:08:31;;;;;;;3.00;2.17;;;;;;;;;;1773447;79;21156;-85
2022/06/21 13:11:01;;;;;;;2.10;1.90;;;;;;;;;;1774447;80;21527;-85
2022/06/21 13:13:41;;;;;;;2.60;1.92;;;;;;;;;;1763632;79;21028;-84
2022/06/21 13:16:12;;;;;;;2.70;1.95;;;;;;;;;;1772452;80;21112;-87
2022/06/21 13:18:40;;;;;;;2.80;2.00;;;;;;;;;;1755506;79;21111;-86
2022/06/21 13:21:15;;;;;;;2.62;2.05;;;;;;;;;;1758235;80;21104;-83
2022/06/21 13:24:00;;;;;;;3.45;2.30;;;;;;;;;;1751542;80;21016;-80
2022/06/21 13:26:44;;;;;;;3.10;2.58;;;;;;;;;;1778317;80;21496;-76
2022/06/21 13:29:25;;;;;;;3.10;2.05;;;;;;;;;;1748818;80;21091;-76
2022/06/21 13:31:55;;;;;;;2.62;2.00;;;;;;;;;;1778412;80;21044;-82
2022/06/21 13:34:36;;;;;;;5.50;2.00;;;;;;;;;;1776441;80;21039;-75
2022/06/21 13:37:12;;;;;;;3.02;2.02;;;;;;;;;;1779464;80;20973;-76
2022/06/21 13:39:43;;;;;;;2.70;2.10;;;;;;;;;;1782801;80;20993;-80
2022/06/21 13:45:19;;;;;;;2.40;2.10;;;;;;;;;;1756080;80;21465;-75
2022/06/21 13:47:47;;;;;;;2.47;2.08;;;;;;;;;;1784596;80;21009;-75
2022/06/21 13:50:15;;;;;;;3.87;2.25;;;;;;;;;;1771307;80;21043;-73
2022/06/21 13:52:48;;;;;;;2.98;2.15;;;;;;;;;;1762994;80;21040;-73
2022/06/21 13:55:16;;;;;;;2.27;2.08;;;;;;;;;;1785786;80;21083;-77
2022/06/21 13:57:52;;;;;;;2.33;2.10;;;;;;;;;;1709938;81;21199;-73
2022/06/21 14:00:19;;;;;;;2.30;2.10;;;;;;;;;;1728216;81;21550;-74
2022/06/21 14:02:53;;;;;;;2.47;1.95;;;;;;;;;;1694736;82;21001;-82
2022/06/21 14:05:27;;;;;;;4.20;2.47;;;;;;;;;;1750642;80;21056;-77
2022/06/21 14:07:56;;;;;;;2.85;2.30;;;;;;;;;;1765933;79;21583;-75
2022/06/21 14:10:35;;;;;;;2.67;2.37;;;;;;;;;;1781098;80;21588;-79
2022/06/21 14:13:21;;;;;;;2.55;2.22;;;;;;;;;;1774535;79;20997;-76
2022/06/21 14:15:48;;;;;;;2.70;2.37;;;;;;;;;;1760016;79;21044;-78
2022/06/21 14:18:16;;;;;;;2.80;2.20;;;;;;;;;;1733544;80;21016;-72
2022/06/21 14:20:48;;;;;;;2.72;2.52;;;;;;;;;;1768326;81;21068;-73
2022/06/21 14:23:19;;;;;;;2.33;2.05;;;;;;;;;;1768799;81;21580;-73
2022/06/21 14:25:47;;;;;;;2.10;1.90;;;;;;;;;;1767238;79;21044;-77
2022/06/21 14:28:21;;;;;;;3.52;2.10;;;;;;;;;;1772216;80;22491;-74
2022/06/21 14:30:50;;;;;;;2.50;2.02;;;;;;;;;;1759497;79;21072;-73
2022/06/21 14:33:18;;;;;;;2.35;1.95;;;;;;;;;;1773907;80;21025;-72
2022/06/21 14:35:46;;;;;;;2.20;2.00;;;;;;;;;;1752340;81;20981;-78
2022/06/21 14:38:13;;;;;;;44.40;39.65;;;;;;;;;;1764224;81;21005;-82
2022/06/21 14:40:42;;;;;;;22.30;19.92;;;;;;;;;;1760735;79;21044;-83
2022/06/21 14:43:13;;;;;;;12.95;9.78;;;;;;;;;;1758597;79;21573;-79
2022/06/21 14:45:53;;;;;;;4.55;3.55;;;;;;;;;;1763277;79;21014;-82
2022/06/21 14:48:30;;;;;;;2.67;2.30;;;;;;;;;;1769490;79;21091;-81
2022/06/21 14:50:57;;;;;;;3.22;2.10;;;;;;;;;;1764039;79;21045;-82
2022/06/21 14:53:42;;;;;;;2.35;2.00;;;;;;;;;;1760671;79;21061;-82
2022/06/21 14:56:09;;;;;;;2.10;1.90;;;;;;;;;;1771099;79;20989;-79
2022/06/21 14:58:38;;;;;;;2.83;2.20;;;;;;;;;;1777364;81;21085;-78
2022/06/21 15:01:13;;;;;;;2.58;2.00;;;;;;;;;;1781143;80;21007;-79
2022/06/21 15:03:56;;;;;;;2.33;2.12;;;;;;;;;;1787542;79;21041;-82
2022/06/21 15:06:30;;;;;;;3.33;2.30;;;;;;;;;;1780039;80;21003;-81
2022/06/21 15:08:58;;;;;;;3.37;2.35;;;;;;;;;;1771878;79;21055;-84
2022/06/21 15:14:19;;;;;;;2.87;2.10;;;;;;;;;;1718939;83;20983;-79
2022/06/21 15:16:54;;;;;;;2.58;2.17;;;;;;;;;;1726182;82;21109;-77
2022/06/21 15:22:16;;;;;;;2.72;2.17;;;;;;;;;;1726468;82;21015;-80
2022/06/21 15:24:42;;;;;;;3.02;1.90;;;;;;;;;;1678604;81;21036;-81
2022/06/21 15:27:12;;;;;;;2.40;2.00;;;;;;;;;;1769125;79;21111;-81
2022/06/21 15:29:45;;;;;;;3.35;2.00;;;;;;;;;;1772408;80;21015;-81
2022/06/21 15:32:13;;;;;;;3.52;2.00;;;;;;;;;;1767510;79;21014;-74